Time;durP1;ratioP1;P1;durP2;ratioP2;P2;SDS_P1;SDS_P2;PMS_P1;PMS_P2;Temp;Humidity;BMP_temperature;BMP_pressure;BME280_temperature;BME280_humidity;BME280_pressure;Samples;Min_cycle;Max_cycle;Signal;HPM_P1;HPM_P2
2024/01/28 00:01:45;;;;;;;0.00;0.00;;;1.20;99.90;;;;;;5092334;28;20526;-68
2024/01/28 00:04:10;;;;;;;0.08;0.08;;;1.20;99.90;;;;;;5092704;28;20784;-68
2024/01/28 00:06:36;;;;;;;0.35;0.35;;;1.20;99.90;;;;;;5074076;28;20196;-67
2024/01/28 00:09:02;;;;;;;0.00;0.00;;;1.20;99.90;;;;;;5092418;28;20191;-68
2024/01/28 00:11:27;;;;;;;0.10;0.10;;;1.10;99.90;;;;;;5091935;28;20207;-65
2024/01/28 00:13:53;;;;;;;0.00;0.00;;;1.10;99.90;;;;;;5092445;28;20614;-67
2024/01/28 00:16:20;;;;;;;0.10;0.10;;;1.10;99.90;;;;;;5091419;28;20184;-66
2024/01/28 00:18:45;;;;;;;0.10;0.10;;;1.00;99.90;;;;;;5092331;28;20264;-67
2024/01/28 00:21:11;;;;;;;0.00;0.00;;;1.00;99.90;;;;;;5091849;28;20217;-66
2024/01/28 00:23:37;;;;;;;0.05;0.05;;;1.00;99.90;;;;;;5092338;28;20176;-66
2024/01/28 00:26:02;;;;;;;0.47;0.47;;;0.90;99.90;;;;;;5091651;28;20230;-66
2024/01/28 00:28:29;;;;;;;0.00;0.00;;;0.90;99.90;;;;;;5091767;28;20217;-67
2024/01/28 00:30:54;;;;;;;0.00;0.00;;;0.90;99.90;;;;;;5092386;28;20207;-67
2024/01/28 00:33:20;;;;;;;0.00;0.00;;;0.90;99.90;;;;;;5091805;28;20184;-66
2024/01/28 00:35:46;;;;;;;0.65;0.43;;;0.80;99.90;;;;;;5091926;28;20188;-67
2024/01/28 00:38:11;;;;;;;0.08;0.08;;;0.90;99.90;;;;;;5092451;28;20184;-66
2024/01/28 00:40:37;;;;;;;0.00;0.00;;;0.80;99.90;;;;;;5091981;28;20252;-65
2024/01/28 00:43:03;;;;;;;0.15;0.15;;;0.80;99.90;;;;;;5091627;28;20270;-67
2024/01/28 00:45:29;;;;;;;0.10;0.10;;;0.80;99.90;;;;;;5092155;28;20180;-66
2024/01/28 00:47:55;;;;;;;0.00;0.00;;;0.80;99.90;;;;;;5091949;28;20722;-66
2024/01/28 00:50:20;;;;;;;0.20;0.20;;;0.90;99.90;;;;;;5091870;28;20259;-67
2024/01/28 00:52:46;;;;;;;0.00;0.00;;;0.90;99.90;;;;;;5091823;28;20319;-66
2024/01/28 00:55:12;;;;;;;0.10;0.10;;;0.80;99.90;;;;;;5091873;28;20631;-66
2024/01/28 00:57:37;;;;;;;0.00;0.00;;;0.80;99.90;;;;;;5090482;28;20261;-66
2024/01/28 01:00:04;;;;;;;0.20;0.20;;;0.80;99.90;;;;;;5091440;28;20258;-66
2024/01/28 01:02:30;;;;;;;0.00;0.00;;;0.80;99.90;;;;;;5089461;28;20192;-66
2024/01/28 01:04:55;;;;;;;0.00;0.00;;;0.80;99.90;;;;;;5090607;28;20176;-67
2024/01/28 01:07:21;;;;;;;0.05;0.05;;;0.80;99.90;;;;;;5091246;28;20187;-67
2024/01/28 01:09:46;;;;;;;0.10;0.10;;;0.80;99.90;;;;;;5090289;28;20176;-66
2024/01/28 01:12:12;;;;;;;0.00;0.00;;;0.80;99.90;;;;;;5091603;28;20219;-66
2024/01/28 01:14:37;;;;;;;0.00;0.00;;;0.70;99.90;;;;;;5090115;28;20207;-66
2024/01/28 01:17:04;;;;;;;0.13;0.13;;;0.70;99.90;;;;;;5090863;28;20236;-67
2024/01/28 01:19:30;;;;;;;0.03;0.03;;;0.70;99.90;;;;;;5091509;28;20176;-66
2024/01/28 01:21:57;;;;;;;0.00;0.00;;;0.70;99.90;;;;;;5091195;28;20176;-66
2024/01/28 01:24:25;;;;;;;0.00;0.00;;;0.60;99.90;;;;;;5090802;28;20180;-66
2024/01/28 01:26:51;;;;;;;0.10;0.10;;;0.60;99.90;;;;;;5091125;28;20575;-66
2024/01/28 01:29:16;;;;;;;0.00;0.00;;;0.60;99.90;;;;;;5090824;28;20176;-67
2024/01/28 01:31:42;;;;;;;0.05;0.05;;;0.50;99.90;;;;;;5090540;28;20855;-66
2024/01/28 01:34:08;;;;;;;0.00;0.00;;;0.50;99.90;;;;;;5089168;28;20167;-67
2024/01/28 01:36:33;;;;;;;0.00;0.00;;;0.50;99.90;;;;;;5079703;28;20168;-66
2024/01/28 01:38:59;;;;;;;0.40;0.40;;;0.50;99.90;;;;;;5090647;28;20212;-67
2024/01/28 01:41:25;;;;;;;0.10;0.10;;;0.50;99.90;;;;;;5091015;28;20222;-66
2024/01/28 01:43:51;;;;;;;0.00;0.00;;;0.50;99.90;;;;;;5090989;28;20180;-66
2024/01/28 01:46:17;;;;;;;0.05;0.05;;;0.60;99.90;;;;;;5089790;28;20618;-67
2024/01/28 01:48:43;;;;;;;0.13;0.13;;;0.60;99.90;;;;;;5090206;28;20275;-67
2024/01/28 01:51:11;;;;;;;0.00;0.00;;;0.60;99.90;;;;;;5090085;28;20236;-66
2024/01/28 01:53:38;;;;;;;0.00;0.00;;;0.60;99.90;;;;;;5090795;28;20184;-66
2024/01/28 01:56:04;;;;;;;0.00;0.00;;;0.60;99.90;;;;;;5090546;28;20214;-68
2024/01/28 01:58:30;;;;;;;0.00;0.00;;;0.60;99.90;;;;;;5088767;28;20204;-67
2024/01/28 02:00:56;;;;;;;0.00;0.00;;;0.60;99.90;;;;;;5089706;28;20184;-67
2024/01/28 02:03:21;;;;;;;0.20;0.20;;;0.50;99.90;;;;;;5090538;28;20186;-67
2024/01/28 02:05:47;;;;;;;0.00;0.00;;;0.50;99.90;;;;;;5090524;28;20191;-67
2024/01/28 02:08:12;;;;;;;0.05;0.05;;;0.50;99.90;;;;;;5090980;28;20176;-67
2024/01/28 02:10:38;;;;;;;0.13;0.13;;;0.50;99.90;;;;;;5090476;28;20184;-67
2024/01/28 02:13:03;;;;;;;0.00;0.00;;;0.50;99.90;;;;;;5090285;28;20191;-67
2024/01/28 02:15:36;;;;;;;0.00;0.00;;;0.50;99.90;;;;;;5089523;28;20572;-67
2024/01/28 02:18:02;;;;;;;0.30;0.30;;;0.50;99.90;;;;;;5094646;28;20180;-67
2024/01/28 02:20:27;;;;;;;0.00;0.00;;;0.50;99.90;;;;;;5094501;28;20183;-66
2024/01/28 02:22:53;;;;;;;0.00;0.00;;;0.50;99.90;;;;;;5092983;28;20237;-67
2024/01/28 02:25:18;;;;;;;0.00;0.00;;;0.50;99.90;;;;;;5093575;28;20184;-67
2024/01/28 02:27:46;;;;;;;0.10;0.10;;;0.50;99.90;;;;;;5094501;28;20184;-66
2024/01/28 02:30:12;;;;;;;0.00;0.00;;;0.50;99.90;;;;;;5094297;28;20718;-66
2024/01/28 02:32:49;;;;;;;0.00;0.00;;;0.50;99.90;;;;;;5092924;28;20212;-66
2024/01/28 02:35:15;;;;;;;0.10;0.10;;;0.50;99.90;;;;;;5089103;28;20178;-66
2024/01/28 02:37:41;;;;;;;0.00;0.00;;;0.50;99.90;;;;;;5092286;28;20176;-66
2024/01/28 02:40:08;;;;;;;0.00;0.00;;;0.50;99.90;;;;;;5093199;28;20238;-67
2024/01/28 02:42:34;;;;;;;0.20;0.20;;;0.50;99.90;;;;;;5093077;28;20183;-66
2024/01/28 02:44:59;;;;;;;0.10;0.10;;;0.50;99.90;;;;;;5091471;28;20188;-67
2024/01/28 02:47:25;;;;;;;0.20;0.15;;;0.40;99.90;;;;;;5083252;28;20268;-66
2024/01/28 02:49:50;;;;;;;0.10;0.10;;;0.40;99.90;;;;;;5092448;28;20188;-66
2024/01/28 02:52:16;;;;;;;0.10;0.10;;;0.40;99.90;;;;;;5093618;28;20223;-67
2024/01/28 02:54:41;;;;;;;0.10;0.10;;;0.40;99.90;;;;;;5092988;28;20245;-66
2024/01/28 02:57:07;;;;;;;0.00;0.00;;;0.40;99.90;;;;;;5093780;28;20168;-66
2024/01/28 02:59:32;;;;;;;0.22;0.22;;;0.40;99.90;;;;;;5092470;28;20245;-66
2024/01/28 03:01:58;;;;;;;0.10;0.10;;;0.30;99.90;;;;;;5093545;28;20192;-67
2024/01/28 03:04:24;;;;;;;0.00;0.00;;;0.30;99.90;;;;;;5093739;28;20184;-66
2024/01/28 03:06:49;;;;;;;0.00;0.00;;;0.40;99.90;;;;;;5093066;28;20217;-67
2024/01/28 03:09:17;;;;;;;0.00;0.00;;;0.30;99.90;;;;;;5093667;28;20179;-67
2024/01/28 03:11:42;;;;;;;0.10;0.10;;;0.40;99.90;;;;;;5093294;28;20679;-67
2024/01/28 03:14:08;;;;;;;0.00;0.00;;;0.40;99.90;;;;;;5093433;28;20191;-67
2024/01/28 03:16:34;;;;;;;0.00;0.00;;;0.40;99.90;;;;;;5092767;28;20199;-66
2024/01/28 03:18:59;;;;;;;0.00;0.00;;;0.40;99.90;;;;;;5092815;28;20183;-67
2024/01/28 03:21:25;;;;;;;0.00;0.00;;;0.40;99.90;;;;;;5093281;28;20550;-66
2024/01/28 03:23:50;;;;;;;0.10;0.10;;;0.40;99.90;;;;;;5093061;28;20187;-66
2024/01/28 03:26:18;;;;;;;0.00;0.00;;;0.40;99.90;;;;;;5092740;28;20184;-66
2024/01/28 03:28:43;;;;;;;0.00;0.00;;;0.40;99.90;;;;;;5091928;28;20180;-66
2024/01/28 03:31:09;;;;;;;0.10;0.10;;;0.40;99.90;;;;;;5093328;28;20219;-67
2024/01/28 03:33:34;;;;;;;0.00;0.00;;;0.40;99.90;;;;;;5092485;28;20188;-67
2024/01/28 03:36:00;;;;;;;0.00;0.00;;;0.40;99.90;;;;;;5093143;28;20237;-66
2024/01/28 03:38:25;;;;;;;0.00;0.00;;;0.40;99.90;;;;;;5093209;28;20176;-66
2024/01/28 03:40:51;;;;;;;0.08;0.08;;;0.40;99.90;;;;;;5092606;28;20778;-66
2024/01/28 03:43:16;;;;;;;0.00;0.00;;;0.40;99.90;;;;;;5093130;28;20180;-67
2024/01/28 03:45:42;;;;;;;0.00;0.00;;;0.40;99.90;;;;;;5092806;28;20188;-66
2024/01/28 03:48:07;;;;;;;0.00;0.00;;;0.40;99.90;;;;;;5092904;28;20184;-66
2024/01/28 03:50:33;;;;;;;0.10;0.10;;;0.40;99.90;;;;;;5092769;28;20628;-66
2024/01/28 03:52:58;;;;;;;0.13;0.13;;;0.40;99.90;;;;;;5092392;28;20214;-66
2024/01/28 03:55:24;;;;;;;0.00;0.00;;;0.40;99.90;;;;;;5092936;28;20172;-66
2024/01/28 03:57:49;;;;;;;0.20;0.20;;;0.40;99.90;;;;;;5092073;28;20249;-66
2024/01/28 04:00:18;;;;;;;0.00;0.00;;;0.40;99.90;;;;;;5092366;28;20172;-66
2024/01/28 04:02:44;;;;;;;0.00;0.00;;;0.40;99.90;;;;;;5091962;28;20238;-66
2024/01/28 04:05:09;;;;;;;0.00;0.00;;;0.40;99.90;;;;;;5092424;28;20172;-66
2024/01/28 04:07:35;;;;;;;0.00;0.00;;;0.40;99.90;;;;;;5092318;28;20172;-65
2024/01/28 04:10:01;;;;;;;0.10;0.10;;;0.40;99.90;;;;;;5092405;28;20275;-66
2024/01/28 04:12:26;;;;;;;0.00;0.00;;;0.40;99.90;;;;;;5092067;28;20216;-65
2024/01/28 04:14:52;;;;;;;0.00;0.00;;;0.40;99.90;;;;;;5092040;28;20176;-65
2024/01/28 04:17:17;;;;;;;0.20;0.20;;;0.40;99.90;;;;;;5091861;28;20239;-65
2024/01/28 04:19:43;;;;;;;0.32;0.32;;;0.40;99.90;;;;;;5092062;28;20187;-65
2024/01/28 04:22:09;;;;;;;0.00;0.00;;;0.40;99.90;;;;;;5091978;28;20676;-66
2024/01/28 04:24:35;;;;;;;0.00;0.00;;;0.40;99.90;;;;;;5091998;28;20289;-65
2024/01/28 04:27:01;;;;;;;0.00;0.00;;;0.30;99.90;;;;;;5091184;28;20267;-66
2024/01/28 04:29:27;;;;;;;0.05;0.05;;;0.30;99.90;;;;;;5091823;28;20173;-66
2024/01/28 04:31:53;;;;;;;0.00;0.00;;;0.30;99.90;;;;;;5092018;28;20219;-66
2024/01/28 04:34:19;;;;;;;0.00;0.00;;;0.40;99.90;;;;;;5091910;28;20191;-66
2024/01/28 04:36:45;;;;;;;0.00;0.00;;;0.40;99.90;;;;;;5091853;28;20322;-66
2024/01/28 04:39:10;;;;;;;0.00;0.00;;;0.30;99.90;;;;;;5091368;28;20310;-66
2024/01/28 04:41:36;;;;;;;0.00;0.00;;;0.40;99.90;;;;;;5091924;28;20276;-65
2024/01/28 04:44:01;;;;;;;0.00;0.00;;;0.30;99.90;;;;;;5091854;28;20192;-65
2024/01/28 04:46:27;;;;;;;0.00;0.00;;;0.30;99.90;;;;;;5091842;28;20186;-65
2024/01/28 04:48:52;;;;;;;0.00;0.00;;;0.40;99.90;;;;;;5091325;28;20533;-66
2024/01/28 04:51:18;;;;;;;0.03;0.03;;;0.40;99.90;;;;;;5091415;28;20219;-65
2024/01/28 04:53:43;;;;;;;0.00;0.00;;;0.40;99.90;;;;;;5091599;28;20180;-66
2024/01/28 04:56:11;;;;;;;0.00;0.00;;;0.30;99.90;;;;;;5091718;28;20620;-66
2024/01/28 04:58:36;;;;;;;0.00;0.00;;;0.30;99.90;;;;;;5091641;28;20241;-66
2024/01/28 05:01:02;;;;;;;0.15;0.15;;;0.40;99.90;;;;;;5090643;28;20647;-65
2024/01/28 05:03:27;;;;;;;0.00;0.00;;;0.30;99.90;;;;;;5090843;28;20184;-64
2024/01/28 05:05:53;;;;;;;0.00;0.00;;;0.30;99.90;;;;;;5092521;28;20180;-66
2024/01/28 05:08:18;;;;;;;0.20;0.20;;;0.30;99.90;;;;;;5092745;28;20183;-65
2024/01/28 05:10:44;;;;;;;0.00;0.00;;;0.20;99.90;;;;;;5092163;28;20686;-66
2024/01/28 05:13:09;;;;;;;0.00;0.00;;;0.20;99.90;;;;;;5092011;28;20195;-68
2024/01/28 05:15:35;;;;;;;0.00;0.00;;;0.20;99.90;;;;;;5091692;28;20327;-65
2024/01/28 05:18:01;;;;;;;0.00;0.00;;;0.20;99.90;;;;;;5091074;28;20184;-65
2024/01/28 05:20:26;;;;;;;0.00;0.00;;;0.20;99.90;;;;;;5090865;28;20183;-65
2024/01/28 05:22:52;;;;;;;0.00;0.00;;;0.20;99.90;;;;;;5091507;28;20184;-65
2024/01/28 05:25:17;;;;;;;0.07;0.07;;;0.10;99.90;;;;;;5091232;28;20188;-65
2024/01/28 05:27:44;;;;;;;0.00;0.00;;;0.30;99.90;;;;;;5089435;28;20191;-65
2024/01/28 05:30:09;;;;;;;0.00;0.00;;;0.10;99.90;;;;;;5091068;28;20180;-65
2024/01/28 05:32:35;;;;;;;0.00;0.00;;;0.10;99.90;;;;;;5090763;28;20277;-65
2024/01/28 05:35:03;;;;;;;0.10;0.10;;;0.10;99.90;;;;;;5090787;28;20176;-65
2024/01/28 05:37:29;;;;;;;0.30;0.30;;;0.10;99.90;;;;;;5090709;28;20186;-65
2024/01/28 05:39:55;;;;;;;0.10;0.10;;;0.10;99.90;;;;;;5090327;28;20216;-65
2024/01/28 05:42:20;;;;;;;0.00;0.00;;;0.10;99.90;;;;;;5090232;28;20266;-65
2024/01/28 05:44:46;;;;;;;0.00;0.00;;;0.10;99.90;;;;;;5090754;28;20628;-66
2024/01/28 05:47:11;;;;;;;0.00;0.00;;;0.10;99.90;;;;;;5090981;28;20284;-66
2024/01/28 05:49:37;;;;;;;0.00;0.00;;;0.10;99.90;;;;;;5090206;28;20218;-65
2024/01/28 05:52:03;;;;;;;0.17;0.17;;;0.10;99.90;;;;;;5089569;28;20257;-65
2024/01/28 05:54:30;;;;;;;0.00;0.00;;;0.10;99.90;;;;;;5090704;28;20177;-66
2024/01/28 05:56:56;;;;;;;0.10;0.10;;;0.10;99.90;;;;;;5090361;28;20176;-66
2024/01/28 05:59:21;;;;;;;0.00;0.00;;;0.10;99.90;;;;;;5090573;28;20175;-65
2024/01/28 06:01:47;;;;;;;0.20;0.20;;;0.10;99.90;;;;;;5089779;28;20187;-65
2024/01/28 06:04:12;;;;;;;0.00;0.00;;;0.10;99.90;;;;;;5090087;28;20184;-65
2024/01/28 06:06:38;;;;;;;0.00;0.00;;;0.10;99.90;;;;;;5090666;28;20184;-65
2024/01/28 06:09:04;;;;;;;0.00;0.00;;;0.10;99.90;;;;;;5090763;28;20176;-66
2024/01/28 06:11:30;;;;;;;0.00;0.00;;;0.10;99.90;;;;;;5089721;28;20683;-65
2024/01/28 06:13:56;;;;;;;0.40;0.40;;;0.10;99.90;;;;;;5090652;28;20180;-65
2024/01/28 06:16:21;;;;;;;0.08;0.08;;;0.10;99.90;;;;;;5090359;28;20635;-66
2024/01/28 06:18:47;;;;;;;0.00;0.00;;;0.10;99.90;;;;;;5090170;28;20190;-66
2024/01/28 06:21:13;;;;;;;0.00;0.00;;;0.10;99.90;;;;;;5090303;28;20266;-66
2024/01/28 06:23:40;;;;;;;0.00;0.00;;;0.10;99.90;;;;;;5090210;28;20196;-66
2024/01/28 06:26:06;;;;;;;0.00;0.00;;;0.10;99.90;;;;;;5090134;28;20184;-66
2024/01/28 06:28:32;;;;;;;0.00;0.00;;;0.10;99.90;;;;;;5090088;28;20588;-66
2024/01/28 06:30:57;;;;;;;0.00;0.00;;;0.10;99.90;;;;;;5089861;28;20186;-65
2024/01/28 06:33:23;;;;;;;0.08;0.08;;;0.10;99.90;;;;;;5089750;28;20188;-64
2024/01/28 06:35:49;;;;;;;0.55;0.55;;;0.10;99.90;;;;;;5089585;28;20245;-65
2024/01/28 06:38:14;;;;;;;0.00;0.00;;;0.10;99.90;;;;;;5090054;28;20569;-66
2024/01/28 06:40:40;;;;;;;0.00;0.00;;;0.10;99.90;;;;;;5089611;28;20238;-65
2024/01/28 06:43:05;;;;;;;0.00;0.00;;;0.10;99.90;;;;;;5089034;28;20817;-66
2024/01/28 06:45:31;;;;;;;0.00;0.00;;;0.10;99.90;;;;;;5090422;28;20181;-64
2024/01/28 06:47:56;;;;;;;0.00;0.00;;;0.10;99.90;;;;;;5089540;28;20245;-67
2024/01/28 06:50:22;;;;;;;0.03;0.03;;;0.10;99.90;;;;;;5089874;28;20247;-65
2024/01/28 06:52:50;;;;;;;0.00;0.00;;;0.10;99.90;;;;;;5089682;28;20253;-65
2024/01/28 06:55:17;;;;;;;0.00;0.00;;;0.10;99.90;;;;;;5089994;28;20694;-65
2024/01/28 06:57:42;;;;;;;0.00;0.00;;;0.10;99.90;;;;;;5089741;28;20553;-66
2024/01/28 07:00:10;;;;;;;0.10;0.10;;;0.10;99.90;;;;;;5088347;28;20172;-66
2024/01/28 07:02:36;;;;;;;0.00;0.00;;;0.10;99.90;;;;;;5089621;28;20251;-66
2024/01/28 07:05:02;;;;;;;0.00;0.00;;;0.10;99.90;;;;;;5091935;28;20183;-65
2024/01/28 07:07:28;;;;;;;0.10;0.10;;;0.10;99.90;;;;;;5093591;28;20179;-65
2024/01/28 07:09:53;;;;;;;0.00;0.00;;;0.10;99.90;;;;;;5093336;28;20184;-65
2024/01/28 07:12:19;;;;;;;0.22;0.22;;;0.10;99.90;;;;;;5092328;28;20268;-66
2024/01/28 07:14:44;;;;;;;0.00;0.00;;;0.10;99.90;;;;;;5093525;28;20670;-66
2024/01/28 07:17:10;;;;;;;0.03;0.03;;;0.10;99.90;;;;;;5093237;28;20259;-65
2024/01/28 07:19:35;;;;;;;0.00;0.00;;;0.10;99.90;;;;;;5093138;28;20177;-66
2024/01/28 07:22:01;;;;;;;0.00;0.00;;;0.10;99.90;;;;;;5093120;28;20176;-65
2024/01/28 07:24:27;;;;;;;0.17;0.17;;;0.20;99.90;;;;;;5092417;28;20215;-65
2024/01/28 07:26:53;;;;;;;0.00;0.00;;;0.20;99.90;;;;;;5093250;28;20194;-65
2024/01/28 07:29:18;;;;;;;0.00;0.00;;;0.20;99.90;;;;;;5092951;28;20255;-63
2024/01/28 07:31:44;;;;;;;0.00;0.00;;;0.20;99.90;;;;;;5093011;28;20302;-63
2024/01/28 07:34:09;;;;;;;0.00;0.00;;;0.20;99.90;;;;;;5092030;28;20207;-66
2024/01/28 07:36:35;;;;;;;0.05;0.03;;;0.20;99.90;;;;;;5076360;28;20647;-66
2024/01/28 07:39:03;;;;;;;0.00;0.00;;;0.30;99.90;;;;;;5092737;28;20203;-67
2024/01/28 07:41:29;;;;;;;0.00;0.00;;;0.30;99.90;;;;;;5092906;28;20176;-66
2024/01/28 07:43:54;;;;;;;0.00;0.00;;;0.30;99.90;;;;;;5092556;28;20263;-66
2024/01/28 07:46:21;;;;;;;0.00;0.00;;;0.40;99.90;;;;;;5092459;28;20803;-66
2024/01/28 07:48:47;;;;;;;0.00;0.00;;;0.30;99.90;;;;;;5092628;28;20188;-66
2024/01/28 07:51:12;;;;;;;0.00;0.00;;;0.40;99.90;;;;;;5092635;28;20298;-66
2024/01/28 07:53:38;;;;;;;0.10;0.10;;;0.40;99.90;;;;;;5091738;28;20650;-66
2024/01/28 07:56:04;;;;;;;0.00;0.00;;;0.40;99.90;;;;;;5091286;28;20609;-64
2024/01/28 07:58:29;;;;;;;0.00;0.00;;;0.50;99.90;;;;;;5092447;28;20233;-65
2024/01/28 08:00:55;;;;;;;0.00;0.00;;;0.60;99.90;;;;;;5091841;28;20176;-62
2024/01/28 08:03:21;;;;;;;0.10;0.10;;;0.60;99.90;;;;;;5092315;28;20566;-63
2024/01/28 08:05:47;;;;;;;0.00;0.00;;;0.70;99.90;;;;;;5092198;28;20644;-65
2024/01/28 08:08:12;;;;;;;0.00;0.00;;;0.90;99.90;;;;;;5091949;28;20188;-63
2024/01/28 08:10:38;;;;;;;0.00;0.00;;;1.00;99.90;;;;;;5092031;28;20187;-65
2024/01/28 08:13:04;;;;;;;0.00;0.00;;;1.00;99.90;;;;;;5090571;28;20679;-65
2024/01/28 08:15:30;;;;;;;0.10;0.10;;;1.10;99.90;;;;;;5093180;28;20180;-63
2024/01/28 08:17:56;;;;;;;0.10;0.10;;;1.20;99.90;;;;;;5093201;28;20227;-64
2024/01/28 08:20:21;;;;;;;0.00;0.00;;;1.20;99.90;;;;;;5091911;28;20652;-66
2024/01/28 08:22:47;;;;;;;0.00;0.00;;;1.30;99.90;;;;;;5091456;28;20262;-66
2024/01/28 08:25:13;;;;;;;0.25;0.25;;;1.40;99.90;;;;;;5092159;28;20201;-67
2024/01/28 08:27:38;;;;;;;0.00;0.00;;;1.50;99.90;;;;;;5091285;28;20206;-65
2024/01/28 08:30:08;;;;;;;0.00;0.00;;;1.70;99.90;;;;;;5092495;28;20180;-66
2024/01/28 08:32:34;;;;;;;0.00;0.00;;;1.80;99.90;;;;;;5091809;28;20224;-65
2024/01/28 08:34:59;;;;;;;0.32;0.32;;;2.00;99.90;;;;;;5090811;28;20180;-65
2024/01/28 08:37:25;;;;;;;0.03;0.03;;;2.10;99.90;;;;;;5092179;28;20592;-64
2024/01/28 08:39:51;;;;;;;0.10;0.10;;;2.20;99.90;;;;;;5091895;28;20220;-65
2024/01/28 08:42:18;;;;;;;0.00;0.00;;;2.30;99.90;;;;;;5091992;28;20184;-64
2024/01/28 08:44:44;;;;;;;0.00;0.00;;;2.40;99.90;;;;;;5090787;28;20532;-66
2024/01/28 08:47:10;;;;;;;0.10;0.10;;;2.60;99.90;;;;;;5091201;28;20176;-65
2024/01/28 08:49:36;;;;;;;0.10;0.10;;;2.80;99.90;;;;;;5090152;28;20169;-64
2024/01/28 08:52:01;;;;;;;0.10;0.10;;;2.90;99.90;;;;;;5089642;28;20226;-64
2024/01/28 08:54:27;;;;;;;0.00;0.00;;;3.10;99.90;;;;;;5088563;28;20200;-64
2024/01/28 08:56:52;;;;;;;0.38;0.28;;;3.20;99.90;;;;;;5090795;28;20184;-64
2024/01/28 08:59:18;;;;;;;0.00;0.00;;;3.30;99.90;;;;;;5091557;28;20643;-65
2024/01/28 09:01:47;;;;;;;0.00;0.00;;;3.30;99.90;;;;;;5089789;28;20214;-64
2024/01/28 09:04:13;;;;;;;0.13;0.13;;;3.50;99.90;;;;;;5090584;28;20244;-65
2024/01/28 09:06:38;;;;;;;0.00;0.00;;;3.60;99.90;;;;;;5087666;28;20283;-64
2024/01/28 09:09:07;;;;;;;0.00;0.00;;;3.70;99.90;;;;;;5083414;28;20199;-64
2024/01/28 09:11:34;;;;;;;0.10;0.10;;;3.90;99.90;;;;;;5086783;28;20207;-64
2024/01/28 09:14:01;;;;;;;0.00;0.00;;;4.00;99.90;;;;;;5087635;28;20631;-65
2024/01/28 09:16:26;;;;;;;0.03;0.03;;;4.10;99.90;;;;;;5091041;28;20180;-65
2024/01/28 09:18:52;;;;;;;0.00;0.00;;;4.20;99.90;;;;;;5090847;28;20191;-66
2024/01/28 09:21:18;;;;;;;0.00;0.00;;;4.30;99.90;;;;;;5089941;28;20546;-64
2024/01/28 09:23:43;;;;;;;0.00;0.00;;;4.50;99.90;;;;;;5090281;28;20191;-65
2024/01/28 09:26:08;;;;;;;0.00;0.00;;;4.60;99.90;;;;;;5090340;28;20187;-65
2024/01/28 09:28:34;;;;;;;0.00;0.00;;;4.70;99.90;;;;;;5089128;28;20543;-64
2024/01/28 09:31:00;;;;;;;0.00;0.00;;;4.80;99.90;;;;;;5090846;28;20206;-66
2024/01/28 09:33:26;;;;;;;0.10;0.10;;;4.90;99.90;;;;;;5089587;28;20188;-65
2024/01/28 09:35:52;;;;;;;0.00;0.00;;;5.00;99.90;;;;;;5090580;28;20719;-64
2024/01/28 09:38:18;;;;;;;0.00;0.00;;;5.10;99.90;;;;;;5091058;28;20271;-65
2024/01/28 09:40:44;;;;;;;0.00;0.00;;;5.20;99.90;;;;;;5090779;28;20223;-64
2024/01/28 09:43:19;;;;;;;0.00;0.00;;;5.20;99.90;;;;;;5091000;28;20176;-65
2024/01/28 09:45:44;;;;;;;0.00;0.00;;;5.30;99.90;;;;;;5089143;28;20195;-65
2024/01/28 09:48:12;;;;;;;0.10;0.10;;;5.30;99.90;;;;;;5089625;28;20652;-65
2024/01/28 09:50:39;;;;;;;0.00;0.00;;;5.20;99.90;;;;;;5090829;28;20187;-65
2024/01/28 09:53:04;;;;;;;0.00;0.00;;;5.30;99.90;;;;;;5089338;28;20215;-66
2024/01/28 09:55:30;;;;;;;0.00;0.00;;;5.30;99.90;;;;;;5089145;28;20244;-63
2024/01/28 09:57:55;;;;;;;0.00;0.00;;;5.40;99.90;;;;;;5090380;28;20317;-62
2024/01/28 10:00:23;;;;;;;0.10;0.10;;;5.50;99.90;;;;;;5090412;28;20577;-61
2024/01/28 10:02:48;;;;;;;0.45;0.45;;;5.50;99.90;;;;;;5090330;28;20184;-61
2024/01/28 10:05:14;;;;;;;0.10;0.10;;;5.50;99.90;;;;;;5090249;28;20186;-61
2024/01/28 10:07:47;;;;;;;0.00;0.00;;;5.50;99.90;;;;;;5089355;28;20183;-60
2024/01/28 10:10:16;;;;;;;0.00;0.00;;;5.50;99.90;;;;;;5090508;28;20635;-64
2024/01/28 10:12:41;;;;;;;0.00;0.00;;;5.60;99.90;;;;;;5090091;28;20223;-64
2024/01/28 10:15:17;;;;;;;0.00;0.00;;;5.70;99.90;;;;;;5090219;28;20172;-64
2024/01/28 10:17:47;;;;;;;0.25;0.25;;;5.80;99.90;;;;;;5087901;28;20199;-64
2024/01/28 10:20:18;;;;;;;1.65;0.90;;;6.00;99.90;;;;;;5083920;28;20176;-65
2024/01/28 10:22:44;;;;;;;0.00;0.00;;;6.00;99.90;;;;;;5086602;28;20181;-65
2024/01/28 10:25:12;;;;;;;0.00;0.00;;;6.10;99.90;;;;;;5093992;28;20194;-64
2024/01/28 10:27:38;;;;;;;0.00;0.00;;;6.40;99.90;;;;;;5097254;28;20176;-65
2024/01/28 10:30:05;;;;;;;0.00;0.00;;;6.80;99.90;;;;;;5090537;28;20188;-65
2024/01/28 10:32:31;;;;;;;0.00;0.00;;;7.30;99.90;;;;;;5090361;28;20732;-65
2024/01/28 10:34:56;;;;;;;0.10;0.10;;;7.80;99.90;;;;;;5090521;28;20192;-65
2024/01/28 10:37:26;;;;;;;0.00;0.00;;;8.20;99.90;;;;;;5092156;28;20180;-65
2024/01/28 10:39:57;;;;;;;0.00;0.00;;;8.50;99.90;;;;;;5093437;28;20212;-65
2024/01/28 10:42:25;;;;;;;0.13;0.13;;;8.60;99.50;;;;;;5093387;28;20293;-64
2024/01/28 10:44:54;;;;;;;0.00;0.00;;;8.40;99.00;;;;;;5095487;28;20236;-64
2024/01/28 10:47:24;;;;;;;0.10;0.10;;;8.10;98.80;;;;;;5094151;28;20176;-65
2024/01/28 10:49:52;;;;;;;0.10;0.10;;;7.90;99.30;;;;;;5089520;28;20271;-64
2024/01/28 10:52:19;;;;;;;0.00;0.00;;;7.70;99.70;;;;;;5092958;28;20253;-65
2024/01/28 10:54:46;;;;;;;0.00;0.00;;;7.60;99.90;;;;;;5094278;28;20267;-65
2024/01/28 10:57:12;;;;;;;0.00;0.00;;;7.50;99.90;;;;;;5094109;28;20181;-65
2024/01/28 10:59:39;;;;;;;0.00;0.00;;;7.40;99.90;;;;;;5092970;28;20291;-66
2024/01/28 11:02:06;;;;;;;0.00;0.00;;;7.30;99.90;;;;;;5092969;28;20313;-65
2024/01/28 11:04:33;;;;;;;0.00;0.00;;;7.20;99.90;;;;;;5093398;28;20658;-64
2024/01/28 11:06:59;;;;;;;0.00;0.00;;;7.30;99.90;;;;;;5094016;28;20670;-64
2024/01/28 11:09:25;;;;;;;0.15;0.15;;;7.20;99.90;;;;;;5092483;28;20265;-64
2024/01/28 11:11:51;;;;;;;0.00;0.00;;;7.20;99.90;;;;;;5092791;28;20215;-64
2024/01/28 11:14:18;;;;;;;0.00;0.00;;;7.30;99.90;;;;;;5093624;28;20187;-64
2024/01/28 11:16:46;;;;;;;0.28;0.10;;;7.30;99.90;;;;;;5093522;28;20215;-64
2024/01/28 11:19:14;;;;;;;0.08;0.08;;;7.40;99.90;;;;;;5093831;28;20177;-64
2024/01/28 11:21:40;;;;;;;0.00;0.00;;;7.40;99.90;;;;;;5093685;28;20183;-64
2024/01/28 11:24:08;;;;;;;0.00;0.00;;;7.60;99.90;;;;;;5093847;28;20517;-63
2024/01/28 11:26:47;;;;;;;0.00;0.00;;;7.70;99.90;;;;;;5093613;28;20651;-64
2024/01/28 11:29:15;;;;;;;0.00;0.00;;;7.80;99.90;;;;;;5093905;28;20176;-65
2024/01/28 11:31:43;;;;;;;0.00;0.00;;;7.90;99.90;;;;;;5093543;28;20760;-65
2024/01/28 11:34:19;;;;;;;0.05;0.05;;;7.90;99.90;;;;;;5092838;28;20191;-64
2024/01/28 11:36:51;;;;;;;0.00;0.00;;;7.90;99.90;;;;;;5074796;28;20192;-65
2024/01/28 11:39:22;;;;;;;0.00;0.00;;;7.90;99.90;;;;;;5073170;28;20691;-65
2024/01/28 11:41:48;;;;;;;0.00;0.00;;;8.00;99.90;;;;;;5081355;28;20184;-64
2024/01/28 11:44:15;;;;;;;0.00;0.00;;;8.00;99.90;;;;;;5093041;28;20208;-65
2024/01/28 11:46:40;;;;;;;0.00;0.00;;;8.00;99.90;;;;;;5091615;28;20586;-65
2024/01/28 11:49:08;;;;;;;0.00;0.00;;;8.10;99.90;;;;;;5091597;28;20176;-65
2024/01/28 11:51:34;;;;;;;0.10;0.10;;;8.20;99.90;;;;;;5092632;28;20207;-65
2024/01/28 11:54:01;;;;;;;0.00;0.00;;;8.20;99.90;;;;;;5092868;28;20593;-64
2024/01/28 11:56:28;;;;;;;0.00;0.00;;;8.30;99.90;;;;;;5092568;28;20203;-65
2024/01/28 11:58:55;;;;;;;0.00;0.00;;;8.40;99.90;;;;;;5093542;28;20165;-64
2024/01/28 12:01:21;;;;;;;0.00;0.00;;;8.50;99.90;;;;;;5092715;28;20233;-65
2024/01/28 12:03:47;;;;;;;0.93;0.90;;;8.70;99.90;;;;;;5091028;28;20203;-64
2024/01/28 12:06:14;;;;;;;0.00;0.00;;;8.90;99.90;;;;;;5092169;28;20245;-64
2024/01/28 12:08:41;;;;;;;0.00;0.00;;;9.10;99.90;;;;;;5092947;28;20240;-65
2024/01/28 12:11:07;;;;;;;0.00;0.00;;;9.20;99.90;;;;;;5093357;28;20195;-64
2024/01/28 12:13:32;;;;;;;0.05;0.05;;;9.20;99.60;;;;;;5092550;28;20597;-65
2024/01/28 12:16:01;;;;;;;0.35;0.35;;;9.30;99.70;;;;;;5092385;28;20176;-65
2024/01/28 12:18:31;;;;;;;0.00;0.00;;;9.40;99.20;;;;;;5092290;28;20267;-65
2024/01/28 12:20:57;;;;;;;0.13;0.13;;;9.50;98.80;;;;;;5092453;28;20187;-64
2024/01/28 12:23:22;;;;;;;0.08;0.08;;;9.50;98.40;;;;;;5092646;28;20184;-64
2024/01/28 12:25:49;;;;;;;0.00;0.00;;;9.60;98.40;;;;;;5092373;28;20687;-64
2024/01/28 12:28:15;;;;;;;0.32;0.32;;;9.70;98.40;;;;;;5091227;28;20671;-64
2024/01/28 12:30:41;;;;;;;0.10;0.10;;;9.70;98.10;;;;;;5093004;28;20179;-64
2024/01/28 12:33:07;;;;;;;0.00;0.00;;;9.80;97.60;;;;;;5092262;28;20222;-66
2024/01/28 12:35:32;;;;;;;0.00;0.00;;;9.80;97.20;;;;;;5092413;28;20176;-65
2024/01/28 12:37:58;;;;;;;0.00;0.00;;;9.90;97.40;;;;;;5092588;28;20175;-65
2024/01/28 12:40:24;;;;;;;0.00;0.00;;;9.90;97.40;;;;;;5092291;28;20215;-65
2024/01/28 12:42:49;;;;;;;0.00;0.00;;;10.00;96.50;;;;;;5092104;28;20180;-68
2024/01/28 12:45:15;;;;;;;0.00;0.00;;;10.00;96.30;;;;;;5092165;28;20179;-67
2024/01/28 12:47:40;;;;;;;0.00;0.00;;;10.00;95.90;;;;;;5091746;28;20179;-67
2024/01/28 12:50:07;;;;;;;0.00;0.00;;;10.00;96.10;;;;;;5090869;28;20215;-65
2024/01/28 12:52:33;;;;;;;0.00;0.00;;;10.10;96.30;;;;;;5091696;28;20238;-67